ADDS TAF Data INFO
IDs: Format: Raw Decoded Include METARs

Data at: 1533 UTC 18 Nov 2017

Region: TOP
KATL 181357Z 1814/1918 16004KT P6SM SCT025 SCT200
  TEMPO 1814/1815 4SM BR BKN004
  FM181500 19010KT P6SM BKN040
  FM181800 21012G20KT P6SM BKN035
  FM190000 23018G30KT P6SM VCSH OVC030
  PROB30 1901/1905 29020G35KT SHRA OVC025
  FM190500 31020G25KT P6SM VCSH BKN030
  FM190800 32018KT P6SM OVC050


KBOS 181510Z 1815/1918 24005KT P6SM SKC
  FM190000 18008KT P6SM VCSH OVC020
  FM190200 19009KT 6SM BR VCSH OVC015
  FM190500 20009KT 4SM -RA BR OVC020 WS020/22040KT
  FM190900 20010G28KT 4SM -RA BR OVC010 WS020/21040KT
  FM191100 20012G27KT 2SM -SHRA BR OVC010 WS020/22040KT
  FM191300 21013G28KT 3SM -SHRA BR OVC012
  FM191600 23014G31KT P6SM VCSH BKN020


KBWI 181458Z 1815/1918 19009KT P6SM SCT130 OVC250
  FM190000 19013G23KT P6SM SCT040 OVC200
  FM190300 20015G28KT P6SM -SHRA SCT035 OVC100
  FM191000 24016G29KT 6SM -SHRA SCT025 OVC050
  FM191200 28020G36KT P6SM SCT040 BKN100
  FM191300 29022G39KT P6SM FEW040 SCT100


KCLE 181137Z 1812/1918 18010G20KT P6SM OVC035 WS020/20050KT
  TEMPO 1812/1813 5SM -SHRA OVC025
  FM181300 20015G35KT 3SM SHRA VCTS OVC025CB WS020/22045KT
  FM181800 20015G35KT P6SM BKN010
  FM182200 25015G35KT 2SM TSRA OVC003CB
  TEMPO 1822/1823 VRB30G45KT 1SM +TSRA OVC003CB
  FM190000 27020G35KT 3SM -SHRA BR OVC007
  FM190300 30020G40KT 3SM -SHRA BR OVC010
  FM191200 30020G30KT 6SM -SHRASN BR OVC020


KCLT 181502Z 1815/1912 21010KT P6SM FEW025 SCT160 SCT250
  TEMPO 1816/1818 BKN030
  FM181800 21012G23KT P6SM SCT040 BKN250
  FM190500 21015G24KT 4SM SHRA FEW007 BKN015
  FM190800 30012KT P6SM BKN045
  PROB30 1908/1911 4SM -SHRA OVC025


KCVG 181456Z 1815/1918 20019G31KT P6SM VCSH OVC025 WS020/22055KT
  FM182200 22018G33KT 2SM +SHRA BR VCTS OVC012CB WS020/22055KT
  FM190000 30018G36KT 4SM -SHRA BR OVC012
  FM190400 31018G32KT P6SM OVC018
  FM190800 30011G18KT P6SM OVC022


KDCA 181458Z 1815/1912 19010G19KT P6SM SCT120 OVC250
  FM190100 20015G27KT P6SM SCT040 OVC200
  FM190300 20016G30KT P6SM -SHRA SCT035 OVC140
  FM191000 25016G28KT 6SM -SHRA SCT030 OVC050


KDEN 181523Z 1815/1918 04008KT P6SM SKC
  FM190000 15006KT P6SM FEW220
  FM190600 22008KT P6SM FEW220


KDFW 181509Z 1815/1918 33025G37KT P6SM BKN300
  FM182100 35022G32KT P6SM BKN300
  FM182300 35019KT P6SM SCT300
  FM190200 34009KT P6SM SKC


KDTW 181120Z 1812/1918 19006KT 3SM BR OVC005
  FM181700 05004KT 2SM SHRA BR OVC004
  TEMPO 1818/1821 1SM +SHRA BR
  FM182100 36018G32KT P6SM -SHRA BKN012 BKN022
  FM190000 35024G36KT P6SM -SHRA BKN025 OVC050
  FM190300 33016G25KT P6SM BKN025
  FM190900 31014G22KT P6SM BKN030


KEWR 181445Z 1815/1918 VRB05KT P6SM SCT150 BKN200
  FM181630 19010KT P6SM SCT100 BKN150
  FM181800 20012G18KT P6SM VCSH SCT050 BKN100
  FM182300 21012G18KT 6SM -SHRA BR SCT015 BKN025 OVC050
  FM190700 21012G18KT 3SM SHRA BR SCT007 BKN015 OVC035
  FM191300 24026G35KT 5SM -SHRA BR SCT008 BKN020
  FM191500 29028G37KT P6SM BKN030
  FM191700 29029G38KT P6SM BKN040


KFLL 181131Z 1812/1918 VRB03KT P6SM FEW030
  FM181500 10008KT P6SM SCT040
  FM190300 VRB03KT P6SM FEW040
  FM191500 29008KT P6SM SKC


KIAD 181458Z 1815/1918 19011G19KT P6SM SCT110 OVC250
  FM190000 19015G26KT P6SM SCT040 OVC250
  FM190300 19018G31KT P6SM -SHRA SCT035 OVC110
  FM190800 23017G29KT 6SM -SHRA SCT025 OVC060
  FM191100 27018G32KT 6SM -SHRA SCT040 BKN070
  FM191200 29020G35KT P6SM SCT040 BKN150


KIAH 181527Z 1815/1918 22010G16KT P6SM SCT018 OVC028
  FM181700 24011KT P6SM BKN035
  FM182000 30015G25KT P6SM BKN050
  FM182300 35012G22KT P6SM FEW250
  FM190800 36011KT P6SM SKC


KJFK 181445Z 1815/1918 20012G18KT P6SM SCT100 BKN170
  FM181800 20016G26KT P6SM VCSH SCT050 BKN100
  FM190000 20020G30KT 6SM -SHRA BR SCT015 BKN030 OVC050
  FM190800 21022G32KT 3SM SHRA BR SCT007 BKN015 OVC035
  FM191400 24026G35KT 5SM -SHRA BR SCT008 BKN020
  FM191600 29028G37KT P6SM BKN030


KLAS 181435Z 1815/1918 36010KT P6SM SKC
  FM182100 04007KT P6SM SKC
  FM190200 21006KT P6SM SKC
  FM191400 VRB05KT P6SM SKC


KLAX 181449Z 1815/1918 VRB04KT P6SM FEW150
  FM181600 04006KT P6SM SCT008
  FM182000 27010KT P6SM SCT250
  FM190300 26005KT P6SM SCT250
  FM190800 VRB03KT P6SM SKC


KLGA 181445Z 1815/1912 20010KT P6SM SCT150 BKN200
  FM181600 20010G16KT P6SM SCT100 BKN150
  FM181800 20014G23KT P6SM VCSH SCT050 BKN100
  FM190000 21016G25KT 6SM -SHRA BR SCT015 BKN025 OVC050
  FM190800 21022G32KT 3SM SHRA BR SCT007 BKN015 OVC035


KMCO 181514Z 1815/1918 VRB03KT P6SM FEW040
  FM181800 18007KT P6SM FEW050
  FM190000 VRB02KT P6SM SKC
  FM191500 23009KT P6SM SCT025 BKN100


KMDW 181512Z 1815/1912 36016G27KT 2SM RA BR BKN006 OVC012
  FM182000 34019G30KT 5SM -RA BKN015 OVC025
  FM182200 33018G28KT P6SM BKN025
  FM190600 32013G20KT P6SM SCT025


KMEM 181458Z 1815/1918 20022G32KT P6SM VCSH SCT025 BKN045
  FM181900 23018G28KT P6SM VCTS BKN025CB OVC045
  TEMPO 1819/1821 2SM +TSRA BR BKN009CB
  FM182100 30022G30KT P6SM VCSH BKN035
  FM190100 33015G25KT P6SM FEW040
  FM190400 33008KT P6SM SKC


KMIA 181131Z 1812/1918 VRB03KT P6SM FEW050
  FM181500 09008KT P6SM SCT040
  FM190300 VRB03KT P6SM FEW030
  FM191500 28008KT P6SM SKC


KMSP 181452Z 1815/1918 33010KT P6SM BKN150
  FM181700 32013G19KT P6SM SCT150
  FM182000 31017G25KT P6SM SCT040
  FM190500 31012KT P6SM SKC
  FM191100 28006KT P6SM FEW250
  FM191500 24006KT P6SM FEW250


KORD 181512Z 1815/1918 36016G27KT 2SM RA BR BKN006 OVC012
  FM182000 34019G30KT 5SM -RA BKN015 OVC025
  FM182200 33018G28KT P6SM BKN025
  FM190600 32013G20KT P6SM SCT025
  FM191200 30012KT P6SM SCT150


KPDX 181438Z 1815/1912 VRB03KT P6SM SCT050
  FM182000 13005KT P6SM SCT250


KPHL 181449Z 1815/1918 18008G16KT P6SM BKN120
  FM181700 19010G18KT 6SM -SHRA OVC080
  FM190100 19010G18KT P6SM VCSH OVC060
  FM190700 20015G26KT 4SM SHRA BR OVC025
  FM191100 24016G31KT P6SM VCSH BKN015
  FM191400 27018G38KT P6SM SCT025


KPHX 181436Z 1815/1918 06008KT P6SM SKC
  FM182300 30005KT P6SM SKC
  FM190500 VRB03KT P6SM SCT250
  FM191000 10004KT P6SM FEW250


KPIT 181531Z 1816/1918 19010KT 2SM SHRA OVC035 WS020/22040KT
  TEMPO 1816/1819 4SM -SHRA BR
  FM181900 19010G20KT 4SM -SHRA OVC015
  FM182100 18012G22KT P6SM -SHRA OVC025
  FM190100 20014G28KT 3SM SHRA OVC015
  FM190400 28020G35KT 5SM -SHRA OVC015
  FM190900 28020G30KT 5SM -SHRASN OVC020
  FM191200 28015G25KT P6SM VCSH BKN025


KSAN 181421Z 1814/1918 VRB03KT P6SM VCFG FEW002 SCT012
  TEMPO 1814/1817 SCT002 BKN012
  FM181700 VRB04KT P6SM SCT010
  FM182000 30008KT P6SM SKC
  FM190100 VRB04KT P6SM FEW005


KSEA 181443Z 1815/1918 18007KT P6SM VCSH SCT035 BKN050 OVC150
  TEMPO 1815/1817 -SHRA BKN035 OVC050
  FM182200 18008KT P6SM SCT050 OVC120
  FM190400 17010KT P6SM OVC120
  FM191000 18010KT P6SM -RA OVC040
  FM191500 18012KT P6SM -RA OVC025


KSFO 181447Z 1815/1918 VRB04KT P6SM SKC
  FM181600 04004KT P6SM SKC
  FM182200 31006KT P6SM SCT250
  FM190300 29006KT P6SM FEW250
  FM190600 VRB03KT P6SM SKC


KSLC 181454Z 1815/1918 15007KT P6SM SCT050
  FM182000 34006KT P6SM SKC
  FM190300 15005KT P6SM SCT200


KSTL 181452Z 1815/1918 21014G25KT P6SM -SHRA OVC035
  FM181545 33020G36KT 6SM -SHRA BR SCT008 OVC015
  TEMPO 1816/1818 BKN008
  FM181800 33020G36KT 6SM -SHRA OVC020
  FM182200 32019G35KT P6SM BKN025
  FM190600 31012KT P6SM SKC


KTPA 181459Z 1815/1918 14006KT P6SM SKC
  FM182000 24007KT P6SM FEW250
  FM190200 VRB03KT P6SM SKC